createdAt,value
2022-10-19T00:02:21.020Z,2.00
2022-10-19T00:05:06.486Z,2.65
2022-10-19T00:07:51.486Z,2.38
2022-10-19T00:10:40.809Z,2.00
2022-10-19T00:13:26.009Z,2.17
2022-10-19T00:16:14.416Z,2.40
2022-10-19T00:19:01.628Z,2.33
2022-10-19T00:21:47.069Z,2.08
2022-10-19T00:24:32.099Z,2.10
2022-10-19T00:27:17.330Z,2.22
2022-10-19T00:30:02.802Z,2.22
2022-10-19T00:32:48.088Z,2.13
2022-10-19T00:35:32.950Z,1.67
2022-10-19T00:38:19.782Z,2.45
2022-10-19T00:41:04.613Z,2.28
2022-10-19T00:44:04.025Z,1.90
2022-10-19T00:46:49.029Z,2.20
2022-10-19T00:49:37.993Z,2.05
2022-10-19T00:52:25.504Z,2.13
2022-10-19T00:55:11.415Z,2.20
2022-10-19T00:57:57.111Z,1.42
2022-10-19T01:00:42.512Z,1.85
2022-10-19T01:03:27.838Z,1.85
2022-10-19T01:06:16.871Z,1.92
2022-10-19T01:09:01.855Z,2.43
2022-10-19T01:11:54.971Z,2.53
2022-10-19T01:15:10.940Z,1.60
2022-10-19T01:18:09.210Z,2.60
2022-10-19T01:21:03.507Z,2.33
2022-10-19T01:24:12.405Z,2.15
2022-10-19T01:27:15.627Z,1.95
2022-10-19T01:30:12.306Z,1.90
2022-10-19T01:33:00.566Z,2.30
2022-10-19T01:36:10.293Z,2.22
2022-10-19T01:39:38.060Z,1.45
2022-10-19T01:42:32.723Z,2.13
2022-10-19T01:45:36.100Z,2.00
2022-10-19T01:48:32.090Z,1.80
2022-10-19T01:51:21.779Z,1.90
2022-10-19T01:54:12.413Z,1.50
2022-10-19T01:57:01.770Z,1.90
2022-10-19T01:59:48.564Z,1.85
2022-10-19T02:02:42.077Z,2.20
2022-10-19T02:05:32.172Z,1.65
2022-10-19T02:11:06.199Z,1.55
2022-10-19T02:13:59.057Z,2.20
2022-10-19T02:17:02.452Z,2.08
2022-10-19T02:19:47.348Z,2.13
2022-10-19T02:22:33.322Z,2.03
2022-10-19T02:25:18.767Z,2.20
2022-10-19T02:28:04.678Z,1.90
2022-10-19T02:30:50.381Z,1.98
2022-10-19T02:33:36.594Z,2.35
2022-10-19T02:36:22.038Z,1.52
2022-10-19T02:39:08.744Z,1.58
2022-10-19T02:42:15.992Z,1.63
2022-10-19T02:45:09.409Z,1.67
2022-10-19T02:47:58.335Z,2.00
2022-10-19T02:50:49.754Z,1.45
2022-10-19T02:53:34.703Z,1.77
2022-10-19T02:56:20.034Z,1.70
2022-10-19T02:59:04.997Z,2.70
2022-10-19T03:01:50.649Z,1.98
2022-10-19T03:04:36.045Z,2.10
2022-10-19T03:07:21.767Z,2.42
2022-10-19T03:10:07.025Z,2.25
2022-10-19T03:12:51.879Z,2.30
2022-10-19T03:15:37.173Z,2.50
2022-10-19T03:18:22.361Z,1.90
2022-10-19T03:21:09.942Z,1.90
2022-10-19T03:23:55.284Z,1.98
2022-10-19T03:26:40.364Z,2.60
2022-10-19T03:29:25.569Z,1.83
2022-10-19T03:32:10.639Z,2.55
2022-10-19T03:34:55.881Z,1.90
2022-10-19T03:37:40.974Z,2.05
2022-10-19T03:40:25.802Z,2.20
2022-10-19T03:43:10.793Z,2.20
2022-10-19T03:45:55.646Z,1.85
2022-10-19T03:48:41.016Z,2.00
2022-10-19T03:51:28.181Z,2.60
2022-10-19T03:54:15.189Z,2.20
2022-10-19T03:57:00.291Z,2.25
2022-10-19T03:59:45.115Z,2.67
2022-10-19T04:02:30.333Z,2.75
2022-10-19T04:05:15.703Z,1.98
2022-10-19T04:08:00.842Z,2.60
2022-10-19T04:10:45.954Z,1.80
2022-10-19T04:13:31.773Z,2.13
2022-10-19T04:16:17.858Z,2.17
2022-10-19T04:19:02.831Z,2.10
2022-10-19T04:21:49.474Z,2.47
2022-10-19T04:24:34.474Z,2.38
2022-10-19T04:27:19.453Z,2.13
2022-10-19T04:30:05.258Z,2.20
2022-10-19T04:32:50.533Z,1.90
2022-10-19T04:35:35.514Z,2.75
2022-10-19T04:38:20.372Z,3.13
2022-10-19T04:41:14.552Z,2.78
2022-10-19T04:44:02.078Z,2.38
2022-10-19T04:46:47.045Z,3.10
2022-10-19T04:49:31.911Z,2.20
2022-10-19T04:52:16.803Z,2.38
2022-10-19T04:55:02.025Z,2.80
2022-10-19T04:57:47.175Z,2.08
2022-10-19T05:00:32.190Z,2.60
2022-10-19T05:03:17.445Z,2.70
2022-10-19T05:06:02.555Z,2.72
2022-10-19T05:08:49.166Z,3.03
2022-10-19T05:11:34.195Z,2.80
2022-10-19T05:14:19.800Z,2.85
2022-10-19T05:17:04.719Z,3.53
2022-10-19T05:19:50.017Z,3.25
2022-10-19T05:22:34.806Z,3.17
2022-10-19T05:25:19.814Z,3.10
2022-10-19T05:28:04.994Z,3.53
2022-10-19T05:30:49.918Z,3.65
2022-10-19T05:33:35.332Z,3.03
2022-10-19T05:36:21.863Z,3.53
2022-10-19T05:39:13.802Z,3.83
2022-10-19T05:41:58.712Z,3.95
2022-10-19T05:44:44.019Z,4.70
2022-10-19T05:47:31.005Z,4.50
2022-10-19T05:50:16.301Z,4.13
2022-10-19T05:53:01.648Z,4.65
2022-10-19T05:55:47.003Z,4.45
2022-10-19T05:58:32.847Z,4.60
2022-10-19T06:01:19.725Z,4.30
2022-10-19T06:04:07.024Z,4.43
2022-10-19T06:06:52.311Z,4.82
2022-10-19T06:09:37.477Z,3.85
2022-10-19T06:12:24.942Z,4.85
2022-10-19T06:15:10.541Z,3.63
2022-10-19T06:17:55.817Z,4.10
2022-10-19T06:20:42.051Z,3.83
2022-10-19T06:23:27.008Z,3.75
2022-10-19T06:26:14.343Z,3.92
2022-10-19T06:29:01.284Z,4.43
2022-10-19T06:31:47.727Z,4.43
2022-10-19T06:34:32.709Z,4.20
2022-10-19T06:37:18.017Z,3.75
2022-10-19T06:40:07.040Z,4.18
2022-10-19T06:42:54.536Z,3.47
2022-10-19T06:45:39.798Z,4.47
2022-10-19T06:48:25.049Z,4.30
2022-10-19T06:51:10.481Z,4.55
2022-10-19T06:53:57.179Z,4.40
2022-10-19T06:56:42.463Z,4.82
2022-10-19T06:59:27.374Z,4.00
2022-10-19T07:02:12.617Z,4.50
2022-10-19T07:04:57.905Z,4.75
2022-10-19T07:07:43.049Z,4.75
2022-10-19T07:10:28.173Z,4.95
2022-10-19T07:13:13.978Z,5.20
2022-10-19T07:16:01.241Z,5.90
2022-10-19T07:18:46.939Z,5.20
2022-10-19T07:21:32.239Z,5.43
2022-10-19T07:24:17.706Z,5.45
2022-10-19T07:27:03.834Z,5.60
2022-10-19T07:29:48.885Z,5.38
2022-10-19T07:32:34.287Z,5.97
2022-10-19T07:35:19.356Z,5.70
2022-10-19T07:38:04.433Z,5.47
2022-10-19T07:40:49.339Z,5.13
2022-10-19T07:43:34.881Z,4.57
2022-10-19T07:46:26.229Z,4.85
2022-10-19T07:49:16.290Z,5.22
2022-10-19T07:54:49.376Z,4.63
2022-10-19T07:57:34.438Z,4.78
2022-10-19T08:00:19.635Z,5.03
2022-10-19T08:03:43.750Z,5.25
2022-10-19T08:06:12.206Z,5.25
2022-10-19T08:08:57.229Z,4.93
2022-10-19T08:11:42.548Z,4.80
2022-10-19T08:14:27.925Z,4.72
2022-10-19T08:17:16.670Z,4.97
2022-10-19T08:20:02.992Z,4.22
2022-10-19T08:22:48.252Z,3.97
2022-10-19T08:25:33.496Z,3.85
2022-10-19T08:28:18.597Z,4.88
2022-10-19T08:31:18.215Z,4.72
2022-10-19T08:34:03.914Z,4.85
2022-10-19T08:36:49.014Z,4.47
2022-10-19T08:39:34.001Z,4.00
2022-10-19T08:42:25.380Z,4.65
2022-10-19T08:45:26.923Z,4.00
2022-10-19T08:48:36.576Z,4.80
2022-10-19T08:51:21.541Z,5.32
2022-10-19T08:54:13.599Z,4.47
2022-10-19T08:57:15.546Z,4.55
2022-10-19T09:00:17.112Z,4.70
2022-10-19T09:03:32.121Z,4.80
2022-10-19T09:06:57.030Z,5.15
2022-10-19T09:12:47.245Z,4.60
2022-10-19T09:15:52.959Z,4.18
2022-10-19T09:18:44.274Z,4.80
2022-10-19T09:21:48.463Z,4.30
2022-10-19T09:24:46.820Z,4.13
2022-10-19T09:27:39.412Z,4.47
2022-10-19T09:30:24.700Z,3.97
2022-10-19T09:33:20.134Z,4.35
2022-10-19T09:36:07.545Z,4.30
2022-10-19T09:38:52.649Z,4.05
2022-10-19T09:41:48.075Z,4.15
2022-10-19T09:44:33.474Z,4.70
2022-10-19T09:47:41.355Z,4.38
2022-10-19T09:50:29.330Z,4.00
2022-10-19T09:53:21.066Z,4.20
2022-10-19T09:56:08.212Z,4.38
2022-10-19T09:58:57.220Z,4.90
2022-10-19T10:01:43.845Z,4.63
2022-10-19T10:04:30.290Z,4.30
2022-10-19T10:07:18.782Z,4.80
2022-10-19T10:10:19.305Z,4.57
2022-10-19T10:13:05.238Z,4.43
2022-10-19T10:15:56.871Z,4.40
2022-10-19T10:18:57.255Z,4.30
2022-10-19T10:21:49.868Z,4.25
2022-10-19T10:24:34.868Z,3.97
2022-10-19T10:27:35.812Z,3.80
2022-10-19T10:30:21.068Z,3.70
2022-10-19T10:33:15.932Z,4.28
2022-10-19T10:36:11.899Z,4.80
2022-10-19T10:39:07.313Z,4.40
2022-10-19T10:41:53.726Z,4.70
2022-10-19T10:44:54.209Z,4.80
2022-10-19T10:47:39.473Z,3.70
2022-10-19T10:50:30.789Z,5.05
2022-10-19T10:53:31.928Z,4.40
2022-10-19T10:56:27.456Z,3.65
2022-10-19T10:59:19.763Z,3.85
2022-10-19T11:02:23.565Z,4.10
2022-10-19T11:05:19.281Z,3.28
2022-10-19T11:08:35.857Z,4.00
2022-10-19T11:11:25.667Z,4.13
2022-10-19T11:14:37.389Z,4.22
2022-10-19T11:17:27.522Z,4.45
2022-10-19T11:20:16.824Z,3.50
2022-10-19T11:23:10.897Z,3.60
2022-10-19T11:26:35.047Z,4.22
2022-10-19T11:29:32.419Z,4.43
2022-10-19T11:32:32.942Z,3.65
2022-10-19T11:35:37.334Z,3.95
2022-10-19T11:38:51.650Z,4.53
2022-10-19T11:42:35.454Z,3.85
2022-10-19T11:45:31.006Z,5.18
2022-10-19T11:48:52.961Z,4.50
2022-10-19T11:51:51.886Z,4.60
2022-10-19T11:55:29.937Z,4.07
2022-10-19T11:58:35.282Z,4.45
2022-10-19T12:01:47.855Z,4.32
2022-10-19T12:04:56.103Z,4.10
2022-10-19T12:07:51.947Z,4.68
2022-10-19T12:10:43.252Z,4.00
2022-10-19T12:13:50.650Z,3.70
2022-10-19T12:16:40.053Z,3.63
2022-10-19T12:19:29.674Z,4.28
2022-10-19T12:22:19.345Z,3.90
2022-10-19T12:25:04.766Z,3.78
2022-10-19T12:27:50.957Z,3.60
2022-10-19T12:30:35.843Z,4.32
2022-10-19T12:33:21.244Z,4.60
2022-10-19T12:36:32.942Z,3.90
2022-10-19T12:39:30.930Z,4.30
2022-10-19T12:42:15.881Z,3.88
2022-10-19T12:45:16.856Z,4.28
2022-10-19T12:48:07.872Z,4.35
2022-10-19T12:50:53.836Z,3.90
2022-10-19T12:53:40.701Z,3.85
2022-10-19T12:56:26.794Z,4.38
2022-10-19T12:59:25.715Z,3.85
2022-10-19T13:02:29.214Z,3.93
2022-10-19T13:05:26.080Z,3.95
2022-10-19T13:08:27.292Z,3.53
2022-10-19T13:11:16.907Z,3.65
2022-10-19T13:14:10.964Z,3.85
2022-10-19T13:17:01.248Z,3.60
2022-10-19T13:19:46.432Z,4.38
2022-10-19T13:22:31.695Z,4.07
2022-10-19T13:25:17.108Z,3.70
2022-10-19T13:28:28.092Z,4.07
2022-10-19T13:31:25.879Z,4.00
2022-10-19T13:34:15.400Z,3.80
2022-10-19T13:37:03.382Z,5.10
2022-10-19T13:39:49.699Z,4.28
2022-10-19T13:42:35.277Z,3.90
2022-10-19T13:45:23.027Z,3.35
2022-10-19T13:48:21.562Z,4.00
2022-10-19T13:51:20.013Z,4.25
2022-10-19T13:54:17.708Z,4.00
2022-10-19T13:57:32.043Z,4.00
2022-10-19T14:00:22.516Z,4.63
2022-10-19T14:03:10.814Z,5.28
2022-10-19T14:06:22.312Z,5.00
2022-10-19T14:09:28.337Z,4.63
2022-10-19T14:12:23.702Z,4.35
2022-10-19T14:15:24.365Z,4.47
2022-10-19T14:18:31.498Z,4.53
2022-10-19T14:21:32.882Z,4.95
2022-10-19T14:24:33.657Z,4.82
2022-10-19T14:27:23.874Z,4.25
2022-10-19T14:30:35.804Z,5.45
2022-10-19T14:33:20.653Z,4.50
2022-10-19T14:36:07.969Z,4.22
2022-10-19T14:38:55.885Z,4.32
2022-10-19T14:41:41.087Z,4.30
2022-10-19T14:44:32.304Z,4.32
2022-10-19T14:47:23.518Z,5.50
2022-10-19T14:50:11.744Z,4.65
2022-10-19T14:53:20.901Z,5.60
2022-10-19T14:56:18.768Z,5.28
2022-10-19T14:59:23.042Z,5.85
2022-10-19T15:02:25.807Z,4.93
2022-10-19T15:05:26.751Z,4.95
2022-10-19T15:08:23.195Z,5.43
2022-10-19T15:11:20.892Z,4.78
2022-10-19T15:14:21.838Z,5.28
2022-10-19T15:17:23.743Z,5.55
2022-10-19T15:20:24.091Z,5.10
2022-10-19T15:23:41.557Z,5.55
2022-10-19T15:26:26.295Z,5.50
2022-10-19T15:29:27.882Z,5.35
2022-10-19T15:32:15.832Z,5.07
2022-10-19T15:35:11.952Z,5.18
2022-10-19T15:38:03.346Z,5.45
2022-10-19T15:40:49.346Z,5.03
2022-10-19T15:43:43.316Z,5.40
2022-10-19T15:46:31.510Z,5.75
2022-10-19T15:49:16.888Z,5.53
2022-10-19T15:52:20.564Z,6.18
2022-10-19T15:55:05.985Z,4.85
2022-10-19T15:57:59.005Z,5.93
2022-10-19T16:00:44.168Z,6.50
2022-10-19T16:03:28.993Z,5.45
2022-10-19T16:06:15.233Z,6.43
2022-10-19T16:09:01.091Z,6.75
2022-10-19T16:11:46.522Z,6.22
2022-10-19T16:14:34.381Z,7.03
2022-10-19T16:17:22.283Z,7.22
2022-10-19T16:20:10.662Z,7.03
2022-10-19T16:22:56.593Z,6.32
2022-10-19T16:25:41.677Z,7.50
2022-10-19T16:28:26.852Z,7.35
2022-10-19T16:31:12.145Z,7.20
2022-10-19T16:33:57.579Z,6.90
2022-10-19T16:36:42.774Z,7.88
2022-10-19T16:39:28.522Z,7.22
2022-10-19T16:42:13.657Z,8.00
2022-10-19T16:44:58.814Z,7.75
2022-10-19T16:47:45.252Z,7.15
2022-10-19T16:50:30.368Z,8.02
2022-10-19T16:53:15.338Z,7.78
2022-10-19T16:56:09.806Z,8.15
2022-10-19T16:59:01.247Z,7.85
2022-10-19T17:01:46.520Z,8.00
2022-10-19T17:04:31.530Z,9.63
2022-10-19T17:07:16.762Z,9.25
2022-10-19T17:10:01.967Z,9.05
2022-10-19T17:12:46.780Z,8.43
2022-10-19T17:15:42.632Z,9.02
2022-10-19T17:18:28.633Z,8.75
2022-10-19T17:21:25.404Z,9.18
2022-10-19T17:24:22.057Z,8.25
2022-10-19T17:27:08.012Z,9.20
2022-10-19T17:29:53.191Z,8.40
2022-10-19T17:32:38.183Z,8.30
2022-10-19T17:35:23.540Z,8.57
2022-10-19T17:38:08.501Z,9.05
2022-10-19T17:40:53.418Z,8.95
2022-10-19T17:43:40.620Z,8.75
2022-10-19T17:46:28.945Z,8.60
2022-10-19T17:49:14.407Z,9.63
2022-10-19T17:51:59.283Z,9.73
2022-10-19T17:54:54.571Z,10.30
2022-10-19T17:57:49.386Z,9.82
2022-10-19T18:00:34.357Z,9.25
2022-10-19T18:03:19.573Z,10.80
2022-10-19T18:06:15.971Z,9.77
2022-10-19T18:09:06.007Z,10.05
2022-10-19T18:11:51.430Z,10.18
2022-10-19T18:14:36.365Z,10.52
2022-10-19T18:17:24.127Z,10.52
2022-10-19T18:20:12.007Z,10.60
2022-10-19T18:22:57.101Z,10.55
2022-10-19T18:25:54.022Z,10.43
2022-10-19T18:28:40.249Z,10.80
2022-10-19T18:31:29.291Z,11.57
2022-10-19T18:34:15.950Z,12.17
2022-10-19T18:37:01.158Z,11.80
2022-10-19T18:39:46.507Z,12.30
2022-10-19T18:42:31.293Z,11.75
2022-10-19T18:45:16.171Z,11.73
2022-10-19T18:48:01.064Z,12.05
2022-10-19T18:50:46.137Z,11.73
2022-10-19T18:53:32.072Z,13.57
2022-10-19T18:56:20.114Z,13.25
2022-10-19T18:59:05.760Z,13.98
2022-10-19T19:01:50.784Z,12.10
2022-10-19T19:04:36.954Z,13.35
2022-10-19T19:07:21.939Z,13.23
2022-10-19T19:10:07.330Z,13.25
2022-10-19T19:12:55.378Z,13.10
2022-10-19T19:15:40.581Z,12.35
2022-10-19T19:18:26.266Z,12.73
2022-10-19T19:21:17.315Z,15.13
2022-10-19T19:24:06.287Z,14.50
2022-10-19T19:26:54.871Z,14.73
2022-10-19T19:29:39.734Z,14.43
2022-10-19T19:32:25.010Z,14.82
2022-10-19T19:35:10.250Z,14.20
2022-10-19T19:37:55.354Z,14.23
2022-10-19T19:40:42.392Z,14.52
2022-10-19T19:43:30.929Z,14.82
2022-10-19T19:46:19.061Z,14.70
2022-10-19T19:49:05.207Z,14.57
2022-10-19T19:51:51.963Z,15.05
2022-10-19T19:54:36.922Z,15.52
2022-10-19T19:57:22.592Z,16.05
2022-10-19T20:00:09.765Z,14.98
2022-10-19T20:02:56.605Z,15.02
2022-10-19T20:05:42.133Z,14.55
2022-10-19T20:08:27.080Z,15.98
2022-10-19T20:11:14.569Z,16.58
2022-10-19T20:13:59.901Z,15.45
2022-10-19T20:16:44.984Z,16.00
2022-10-19T20:19:30.410Z,15.93
2022-10-19T20:22:15.319Z,16.38
2022-10-19T20:25:00.227Z,15.57
2022-10-19T20:27:45.512Z,15.50
2022-10-19T20:30:31.019Z,15.50
2022-10-19T20:33:15.974Z,15.70
2022-10-19T20:36:23.912Z,16.55
2022-10-19T20:39:09.532Z,17.02
2022-10-19T20:41:55.186Z,19.02
2022-10-19T20:44:40.302Z,17.85
2022-10-19T20:47:25.438Z,17.77
2022-10-19T20:50:10.762Z,17.23
2022-10-19T20:52:55.726Z,16.48
2022-10-19T20:55:40.788Z,17.45
2022-10-19T20:58:25.901Z,16.83
2022-10-19T21:01:16.514Z,17.00
2022-10-19T21:04:04.671Z,17.77
2022-10-19T21:06:51.241Z,17.10
2022-10-19T21:09:36.291Z,16.70
2022-10-19T21:12:21.638Z,16.27
2022-10-19T21:15:07.073Z,16.75
2022-10-19T21:17:51.883Z,17.38
2022-10-19T21:20:36.821Z,17.63
2022-10-19T21:23:22.023Z,16.17
2022-10-19T21:26:07.181Z,17.67
2022-10-19T21:28:55.036Z,17.52
2022-10-19T21:31:45.227Z,18.10
2022-10-19T21:34:33.558Z,17.83
2022-10-19T21:37:18.461Z,17.55
2022-10-19T21:40:03.526Z,17.75
2022-10-19T21:42:48.776Z,17.92
2022-10-19T21:45:37.490Z,18.27
2022-10-19T21:48:23.621Z,19.27
2022-10-19T21:51:36.262Z,17.48
2022-10-19T21:54:29.135Z,19.25
2022-10-19T21:57:14.210Z,18.55
2022-10-19T21:59:59.190Z,18.58
2022-10-19T22:02:44.021Z,20.88
2022-10-19T22:05:29.312Z,19.65
2022-10-19T22:08:14.398Z,19.42
2022-10-19T22:11:12.366Z,20.30
2022-10-19T22:14:00.037Z,20.30
2022-10-19T22:16:45.442Z,19.42
2022-10-19T22:19:30.845Z,19.23
2022-10-19T22:22:16.096Z,20.73
2022-10-19T22:25:01.376Z,20.15
2022-10-19T22:27:46.185Z,20.83
2022-10-19T22:30:31.177Z,18.10
2022-10-19T22:33:16.225Z,19.92
2022-10-19T22:36:03.220Z,21.10
2022-10-19T22:38:48.601Z,20.83
2022-10-19T22:41:33.796Z,20.08
2022-10-19T22:44:18.658Z,20.10
2022-10-19T22:47:03.612Z,19.20
2022-10-19T22:49:48.915Z,20.38
2022-10-19T22:52:34.352Z,20.30
2022-10-19T22:55:19.485Z,20.70
2022-10-19T22:58:05.926Z,20.38
2022-10-19T23:01:08.573Z,19.55
2022-10-19T23:03:54.638Z,18.98
2022-10-19T23:06:40.722Z,18.55
2022-10-19T23:09:25.661Z,19.63
2022-10-19T23:12:10.838Z,20.48
2022-10-19T23:14:55.806Z,20.05
2022-10-19T23:17:40.736Z,20.25
2022-10-19T23:20:25.942Z,19.88
2022-10-19T23:23:11.146Z,21.63
2022-10-19T23:26:05.172Z,21.73
2022-10-19T23:28:50.855Z,20.02
2022-10-19T23:31:35.879Z,20.40
2022-10-19T23:34:21.094Z,21.67
2022-10-19T23:37:06.256Z,21.27
2022-10-19T23:39:51.356Z,20.88
2022-10-19T23:42:36.373Z,20.92
2022-10-19T23:45:21.217Z,20.85
2022-10-19T23:48:06.354Z,21.77
2022-10-19T23:51:04.268Z,21.30
2022-10-19T23:53:51.181Z,22.20
2022-10-19T23:56:36.475Z,23.20
2022-10-19T23:59:21.583Z,22.80
